Amherst, Colorado
Current Conditions -  °F | °C
As of 2:55 AM on Sunday 25 Jan 2015 (Local Time) from KHEQ Reporting Station
Clear Clear  
Wind Chill: 31°   Ceiling: Unl
Heat Index: 41°   Visibility: 10mi
Dew Point: 27°   Wind: 22mph
Humidity: 57%   Direction: 310°NW
Pressure: 30.06"   Gusts: 30mph
Location:  40.68°N, 102.17°W
Report Text: KHEQ 250955Z AUTO 31019G26KT 10SM CLR 05/M03 A3006 RMK AO2
Loading
Personal Weather Stations






























Interactive Weather Map New forecast layout! Learn more

10-Day Weather Forecast

Advertisements
Track Severe Weather on mobile